»·PEaware :: N664NT KJFK-KEWR

N664NT :: KJFK-KEWR

FLIGHT INFORMATION

Flight Status: Arrived
Operator: Privately registered:
United States
More flights under this callsign
Pilot: Anonymous 328 (328)
Aircraft: Unknown
(GA7C)
More flights by this aircraft type
Origin: KJFK Kennedy Intl
United States
Destination: KEWR Newark Intl
United States
More flights between these airports :: More routes between these airports
Route: JFK V16 DIXIE V276 RBV V249 SBJ
File this flight plan on PilotEdge
Remarks:
Altitude:
(Current/Filed)
6,000ft
Speed:
(Current/Filed)
0kts
Departed: 09-Nov-22 05:33 AM
Arrived: 09-Nov-22 06:18 AM
Distance/Time
Traveled:
18nm/0:45
Distance/Time
To Go:
Arrived

Flight Plot

Page will automatically refresh every two minutes.

Flight plan parsing failed; only flown route is shown


Map Options




Map Legend


Flown Route
Filed Route
Departure Airport
Arrival Airport
Navaid (VOR, NDB)
Fix

Horizontal Profiles

Position Reports

Time Latitude Longitude Heading Altitude Ground
Speed
09-Nov-22 04:57 40.650547 -73.811073 230 20ft 0kts
09-Nov-22 04:58 40.650547 -73.811073 230 20ft 0kts
09-Nov-22 04:59 40.650547 -73.811073 230 20ft 0kts
09-Nov-22 05:00 40.650547 -73.811073 230 20ft 0kts
09-Nov-22 05:01 40.650547 -73.811073 230 20ft 0kts
09-Nov-22 05:02 40.650547 -73.811073 230 20ft 0kts
09-Nov-22 05:03 40.650547 -73.811073 230 20ft 0kts
09-Nov-22 05:04 40.650547 -73.811073 230 20ft 0kts
09-Nov-22 05:05 40.650547 -73.811073 230 20ft 0kts
09-Nov-22 05:06 40.650547 -73.811073 230 20ft 0kts
09-Nov-22 05:07 40.650547 -73.811073 230 20ft 0kts
09-Nov-22 05:08 40.650547 -73.811073 230 20ft 0kts
09-Nov-22 05:09 40.650547 -73.811073 230 20ft 0kts
09-Nov-22 05:10 40.650547 -73.811073 230 20ft 0kts
09-Nov-22 05:11 40.650547 -73.811073 230 20ft 0kts
09-Nov-22 05:12 40.650547 -73.811073 230 20ft 0kts
09-Nov-22 05:13 40.650547 -73.811073 230 20ft 0kts
09-Nov-22 05:14 40.650547 -73.811073 230 20ft 0kts
09-Nov-22 05:15 40.650547 -73.811073 230 20ft 0kts
09-Nov-22 05:16 40.650547 -73.811073 230 20ft 0kts
09-Nov-22 05:17 40.650547 -73.811073 230 20ft 0kts
09-Nov-22 05:18 40.650547 -73.811073 230 20ft 0kts
09-Nov-22 05:19 40.650547 -73.811073 230 20ft 0kts
09-Nov-22 05:20 40.650547 -73.811073 230 20ft 0kts
09-Nov-22 05:21 40.650547 -73.811073 230 20ft 0kts
09-Nov-22 05:22 40.650547 -73.811073 230 20ft 0kts
09-Nov-22 05:23 40.650547 -73.811073 230 20ft 0kts
09-Nov-22 05:24 40.650547 -73.811073 230 20ft 0kts
09-Nov-22 05:25 40.650547 -73.811073 230 20ft 0kts
09-Nov-22 05:26 40.650547 -73.811073 230 20ft 0kts
09-Nov-22 05:27 40.650547 -73.811073 230 20ft 0kts
09-Nov-22 05:28 40.650536 -73.811089 230 20ft 1kts
09-Nov-22 05:29 40.649406 -73.812035 223 20ft 7kts
09-Nov-22 05:30 40.650101 -73.815025 243 20ft 9kts
09-Nov-22 05:31 40.648056 -73.815956 121 21ft 11kts
09-Nov-22 05:32 40.628197 -73.772690 120 2332ft 220kts
09-Nov-22 05:33 40.583164 -73.702499 165 4766ft 268kts
09-Nov-22 05:34 40.532707 -73.754730 256 5006ft 268kts
09-Nov-22 05:35 40.514519 -73.849976 242 4999ft 268kts
09-Nov-22 05:36 40.453503 -73.903839 209 5307ft 269kts
09-Nov-22 05:37 40.387825 -73.952133 209 5734ft 271kts
09-Nov-22 05:38 40.321739 -74.000595 209 6003ft 272kts
09-Nov-22 05:39 40.255768 -74.048843 209 6004ft 272kts
09-Nov-22 05:40 40.208702 -74.117004 278 6005ft 272kts
09-Nov-22 05:41 40.241211 -74.206352 297 6004ft 272kts
09-Nov-22 05:42 40.277794 -74.290573 324 4257ft 265kts
09-Nov-22 05:43 40.349339 -74.291313 4 3003ft 260kts
09-Nov-22 05:44 40.421631 -74.284653 3 2943ft 255kts
09-Nov-22 05:45 40.483440 -74.279549 3 2867ft 207kts
09-Nov-22 05:46 40.533764 -74.265762 24 2802ft 166kts
09-Nov-22 05:47 40.575336 -74.239594 25 2273ft 165kts
09-Nov-22 05:48 40.613937 -74.214951 25 1447ft 133kts
09-Nov-22 05:49 40.647255 -74.193604 25 754ft 132kts
09-Nov-22 05:50 40.680691 -74.172073 25 382ft 154kts
09-Nov-22 05:51 40.721954 -74.129387 46 1974ft 204kts
09-Nov-22 05:52 40.776543 -74.092735 336 2504ft 247kts
09-Nov-22 05:53 40.776379 -74.155785 226 3001ft 208kts
09-Nov-22 05:54 40.736668 -74.211838 226 3002ft 208kts
09-Nov-22 05:55 40.696598 -74.268295 222 3001ft 208kts
09-Nov-22 05:56 40.645493 -74.304565 207 3001ft 208kts
09-Nov-22 05:57 40.593700 -74.339386 205 3000ft 208kts
09-Nov-22 05:58 40.544342 -74.310936 115 2991ft 209kts
09-Nov-22 05:59 40.565212 -74.247314 28 2049ft 188kts
09-Nov-22 06:00 40.609642 -74.217789 26 1539ft 163kts
09-Nov-22 06:01 40.644932 -74.195160 25 804ft 132kts
09-Nov-22 06:02 40.677952 -74.174080 25 115ft 131kts
09-Nov-22 06:03 40.711079 -74.146835 44 1462ft 140kts
09-Nov-22 06:04 40.748348 -74.096970 30 2500ft 207kts
09-Nov-22 06:05 40.804089 -74.080452 341 2563ft 207kts
09-Nov-22 06:06 40.811626 -74.156364 253 4112ft 263kts
09-Nov-22 06:07 40.753464 -74.212288 206 5002ft 268kts
09-Nov-22 06:08 40.687260 -74.256729 207 4313ft 264kts
09-Nov-22 06:09 40.622337 -74.300385 207 3005ft 260kts
09-Nov-22 06:10 40.557472 -74.343056 195 2999ft 260kts
09-Nov-22 06:11 40.527431 -74.295609 58 2698ft 207kts
09-Nov-22 06:12 40.565166 -74.248245 31 2008ft 159kts
09-Nov-22 06:13 40.598656 -74.224213 26 1821ft 134kts
09-Nov-22 06:14 40.632069 -74.203041 25 1114ft 133kts
09-Nov-22 06:15 40.665257 -74.181992 25 410ft 131kts
09-Nov-22 06:16 40.692947 -74.164459 25 19ft 46kts
09-Nov-22 06:17 40.695839 -74.164574 295 19ft 0kts
09-Nov-22 06:18 40.691895 -74.167328 205 19ft 25kts
09-Nov-22 06:19 40.685757 -74.171196 205 19ft 23kts
09-Nov-22 06:20 40.685104 -74.174477 269 19ft 12kts

Navigation Log

Ident Type
Flight plan parsing failed, navigation log unavailable